sensor_id;sensor_type;location;lat;lon;timestamp;noise_LAeq;noise_LA_min;noise_LA_max;noise_LA01;noise_LA95
41518;Laerm;27249;48.094;-1.690;2023-02-26T00:01:28;51.69;41.30;62.69;;
41518;Laerm;27249;48.094;-1.690;2023-02-26T00:03:55;50.19;42.22;61.00;;
41518;Laerm;27249;48.094;-1.690;2023-02-26T00:06:21;52.09;41.75;61.17;;
41518;Laerm;27249;48.094;-1.690;2023-02-26T00:08:46;50.77;42.41;61.69;;
41518;Laerm;27249;48.094;-1.690;2023-02-26T00:11:11;50.93;41.06;60.35;;
41518;Laerm;27249;48.094;-1.690;2023-02-26T00:13:39;52.30;42.22;65.38;;
41518;Laerm;27249;48.094;-1.690;2023-02-26T00:16:10;47.00;41.82;59.04;;
41518;Laerm;27249;48.094;-1.690;2023-02-26T00:18:37;53.05;42.98;65.94;;
41518;Laerm;27249;48.094;-1.690;2023-02-26T00:21:03;51.73;42.88;64.84;;
41518;Laerm;27249;48.094;-1.690;2023-02-26T00:23:28;51.76;43.19;59.26;;
41518;Laerm;27249;48.094;-1.690;2023-02-26T00:25:53;53.18;41.96;63.49;;
41518;Laerm;27249;48.094;-1.690;2023-02-26T00:28:19;52.94;42.16;63.06;;
41518;Laerm;27249;48.094;-1.690;2023-02-26T00:30:44;52.07;42.41;61.75;;
41518;Laerm;27249;48.094;-1.690;2023-02-26T00:33:09;50.64;41.61;65.58;;
41518;Laerm;27249;48.094;-1.690;2023-02-26T00:35:35;53.41;42.09;65.11;;
41518;Laerm;27249;48.094;-1.690;2023-02-26T00:38:01;51.94;42.09;62.44;;
41518;Laerm;27249;48.094;-1.690;2023-02-26T00:43:05;46.98;40.98;60.55;;
41518;Laerm;27249;48.094;-1.690;2023-02-26T00:45:30;47.57;42.03;57.92;;
41518;Laerm;27249;48.094;-1.690;2023-02-26T00:48:15;51.25;41.14;63.80;;
41518;Laerm;27249;48.094;-1.690;2023-02-26T00:50:50;46.32;40.62;57.32;;
41518;Laerm;27249;48.094;-1.690;2023-02-26T00:55:43;53.76;41.53;68.69;;
41518;Laerm;27249;48.094;-1.690;2023-02-26T00:58:08;52.45;43.19;61.16;;
41518;Laerm;27249;48.094;-1.690;2023-02-26T01:00:34;48.70;42.03;67.12;;
41518;Laerm;27249;48.094;-1.690;2023-02-26T01:02:59;51.04;41.89;62.08;;
41518;Laerm;27249;48.094;-1.690;2023-02-26T01:05:24;51.03;40.98;62.48;;
41518;Laerm;27249;48.094;-1.690;2023-02-26T01:10:15;48.61;39.92;63.29;;
41518;Laerm;27249;48.094;-1.690;2023-02-26T01:12:43;54.14;40.43;67.84;;
41518;Laerm;27249;48.094;-1.690;2023-02-26T01:15:09;50.91;40.98;62.23;;
41518;Laerm;27249;48.094;-1.690;2023-02-26T01:17:36;48.94;40.03;60.00;;
41518;Laerm;27249;48.094;-1.690;2023-02-26T01:25:17;53.00;41.46;63.63;;
41518;Laerm;27249;48.094;-1.690;2023-02-26T01:27:44;44.38;40.53;55.47;;
41518;Laerm;27249;48.094;-1.690;2023-02-26T01:30:10;48.01;39.70;61.68;;
41518;Laerm;27249;48.094;-1.690;2023-02-26T01:32:48;52.91;40.43;64.25;;
41518;Laerm;27249;48.094;-1.690;2023-02-26T01:40:57;52.98;40.03;66.60;;
41518;Laerm;27249;48.094;-1.690;2023-02-26T01:48:50;58.22;40.98;82.31;;
41518;Laerm;27249;48.094;-1.690;2023-02-26T01:51:16;46.55;40.03;58.34;;
41518;Laerm;27249;48.094;-1.690;2023-02-26T01:53:42;48.80;40.98;64.19;;
41518;Laerm;27249;48.094;-1.690;2023-02-26T01:56:16;48.51;40.23;59.39;;
41518;Laerm;27249;48.094;-1.690;2023-02-26T01:58:43;47.64;39.92;58.08;;
41518;Laerm;27249;48.094;-1.690;2023-02-26T02:01:08;50.27;41.06;63.54;;
41518;Laerm;27249;48.094;-1.690;2023-02-26T02:03:34;49.66;40.43;64.88;;
41518;Laerm;27249;48.094;-1.690;2023-02-26T02:06:20;53.74;40.89;65.70;;
41518;Laerm;27249;48.094;-1.690;2023-02-26T02:08:46;45.35;40.71;55.46;;
41518;Laerm;27249;48.094;-1.690;2023-02-26T02:11:14;45.73;40.33;57.45;;
41518;Laerm;27249;48.094;-1.690;2023-02-26T02:13:40;46.81;40.62;61.67;;
41518;Laerm;27249;48.094;-1.690;2023-02-26T02:21:36;52.93;41.89;63.01;;
41518;Laerm;27249;48.094;-1.690;2023-02-26T02:31:59;52.35;40.53;66.36;;
41518;Laerm;27249;48.094;-1.690;2023-02-26T02:34:32;42.85;39.70;45.69;;
41518;Laerm;27249;48.094;-1.690;2023-02-26T02:37:01;47.30;40.03;68.66;;
41518;Laerm;27249;48.094;-1.690;2023-02-26T02:39:36;51.98;40.98;65.45;;
41518;Laerm;27249;48.094;-1.690;2023-02-26T02:42:15;46.77;41.14;56.25;;
41518;Laerm;27249;48.094;-1.690;2023-02-26T02:44:45;44.93;39.58;57.26;;
41518;Laerm;27249;48.094;-1.690;2023-02-26T02:47:12;50.34;40.23;60.86;;
41518;Laerm;27249;48.094;-1.690;2023-02-26T02:49:43;50.02;39.78;61.48;;
41518;Laerm;27249;48.094;-1.690;2023-02-26T02:52:12;46.35;38.95;61.19;;
41518;Laerm;27249;48.094;-1.690;2023-02-26T02:54:43;49.97;39.92;61.67;;
41518;Laerm;27249;48.094;-1.690;2023-02-26T02:57:12;48.55;40.62;62.31;;
41518;Laerm;27249;48.094;-1.690;2023-02-26T03:02:07;49.90;40.80;59.84;;
41518;Laerm;27249;48.094;-1.690;2023-02-26T03:04:35;48.67;39.58;65.11;;
41518;Laerm;27249;48.094;-1.690;2023-02-26T03:07:00;48.17;40.71;61.43;;
41518;Laerm;27249;48.094;-1.690;2023-02-26T03:09:25;45.63;40.23;59.05;;
41518;Laerm;27249;48.094;-1.690;2023-02-26T03:11:51;47.96;40.71;58.77;;
41518;Laerm;27249;48.094;-1.690;2023-02-26T03:14:23;51.64;40.62;64.16;;
41518;Laerm;27249;48.094;-1.690;2023-02-26T03:32:26;47.97;40.71;59.98;;
41518;Laerm;27249;48.094;-1.690;2023-02-26T03:35:02;48.72;40.53;60.44;;
41518;Laerm;27249;48.094;-1.690;2023-02-26T03:37:32;50.67;40.33;62.14;;
41518;Laerm;27249;48.094;-1.690;2023-02-26T03:40:01;48.13;40.62;61.83;;
41518;Laerm;27249;48.094;-1.690;2023-02-26T03:42:36;45.60;40.23;60.79;;
41518;Laerm;27249;48.094;-1.690;2023-02-26T03:45:05;48.23;40.71;58.08;;
41518;Laerm;27249;48.094;-1.690;2023-02-26T03:47:32;50.05;40.89;61.49;;
41518;Laerm;27249;48.094;-1.690;2023-02-26T03:50:03;44.15;39.21;58.27;;
41518;Laerm;27249;48.094;-1.690;2023-02-26T03:52:30;51.86;40.43;64.58;;
41518;Laerm;27249;48.094;-1.690;2023-02-26T03:55:04;46.31;39.46;61.60;;
41518;Laerm;27249;48.094;-1.690;2023-02-26T03:57:32;44.17;40.53;55.30;;
41518;Laerm;27249;48.094;-1.690;2023-02-26T03:59:57;49.29;40.62;63.74;;
41518;Laerm;27249;48.094;-1.690;2023-02-26T04:02:27;46.63;39.81;59.51;;
41518;Laerm;27249;48.094;-1.690;2023-02-26T04:04:56;48.83;40.43;60.91;;
41518;Laerm;27249;48.094;-1.690;2023-02-26T04:07:23;47.76;40.53;59.44;;
41518;Laerm;27249;48.094;-1.690;2023-02-26T04:09:49;48.15;40.43;60.17;;
41518;Laerm;27249;48.094;-1.690;2023-02-26T04:12:19;47.14;40.03;57.85;;
41518;Laerm;27249;48.094;-1.690;2023-02-26T04:14:45;50.52;39.99;62.23;;
41518;Laerm;27249;48.094;-1.690;2023-02-26T04:17:10;52.27;40.80;62.93;;
41518;Laerm;27249;48.094;-1.690;2023-02-26T04:19:35;48.78;40.33;62.59;;
41518;Laerm;27249;48.094;-1.690;2023-02-26T04:22:01;46.65;40.33;57.26;;
41518;Laerm;27249;48.094;-1.690;2023-02-26T04:24:26;49.27;40.62;61.66;;
41518;Laerm;27249;48.094;-1.690;2023-02-26T04:26:51;47.42;40.13;61.71;;
41518;Laerm;27249;48.094;-1.690;2023-02-26T04:29:16;48.93;37.17;60.65;;
41518;Laerm;27249;48.094;-1.690;2023-02-26T04:31:42;46.03;40.33;56.03;;
41518;Laerm;27249;48.094;-1.690;2023-02-26T04:34:07;48.66;40.23;63.51;;
41518;Laerm;27249;48.094;-1.690;2023-02-26T04:36:32;49.87;41.38;62.33;;
41518;Laerm;27249;48.094;-1.690;2023-02-26T04:38:57;45.61;40.71;56.72;;
41518;Laerm;27249;48.094;-1.690;2023-02-26T04:41:22;50.65;41.46;61.84;;
41518;Laerm;27249;48.094;-1.690;2023-02-26T04:43:48;49.83;40.71;64.23;;
41518;Laerm;27249;48.094;-1.690;2023-02-26T04:46:14;52.34;41.68;65.34;;
41518;Laerm;27249;48.094;-1.690;2023-02-26T04:48:39;52.15;41.53;61.95;;
41518;Laerm;27249;48.094;-1.690;2023-02-26T04:51:05;54.15;41.38;77.06;;
41518;Laerm;27249;48.094;-1.690;2023-02-26T04:53:30;51.40;40.53;64.24;;
41518;Laerm;27249;48.094;-1.690;2023-02-26T04:55:55;48.08;39.81;62.85;;
41518;Laerm;27249;48.094;-1.690;2023-02-26T04:58:20;50.25;41.14;63.11;;
41518;Laerm;27249;48.094;-1.690;2023-02-26T05:00:49;45.89;39.46;58.16;;
41518;Laerm;27249;48.094;-1.690;2023-02-26T05:03:15;49.25;39.70;62.45;;
41518;Laerm;27249;48.094;-1.690;2023-02-26T05:05:40;52.03;42.53;69.64;;
41518;Laerm;27249;48.094;-1.690;2023-02-26T05:08:05;52.67;39.58;68.98;;
41518;Laerm;27249;48.094;-1.690;2023-02-26T05:10:30;55.02;41.61;64.07;;
41518;Laerm;27249;48.094;-1.690;2023-02-26T05:12:56;48.22;41.30;59.54;;
41518;Laerm;27249;48.094;-1.690;2023-02-26T05:15:21;48.15;41.89;62.15;;
41518;Laerm;27249;48.094;-1.690;2023-02-26T05:17:46;49.87;41.30;61.42;;
41518;Laerm;27249;48.094;-1.690;2023-02-26T05:20:11;51.74;42.76;65.54;;
41518;Laerm;27249;48.094;-1.690;2023-02-26T05:22:37;52.01;42.74;63.57;;
41518;Laerm;27249;48.094;-1.690;2023-02-26T05:25:03;52.53;42.09;65.79;;
41518;Laerm;27249;48.094;-1.690;2023-02-26T05:27:29;48.12;41.96;65.87;;
41518;Laerm;27249;48.094;-1.690;2023-02-26T05:29:54;52.22;41.89;64.73;;
41518;Laerm;27249;48.094;-1.690;2023-02-26T05:32:19;45.95;41.89;55.61;;
41518;Laerm;27249;48.094;-1.690;2023-02-26T05:34:44;48.88;40.89;60.35;;
41518;Laerm;27249;48.094;-1.690;2023-02-26T05:37:10;48.75;40.62;63.06;;
41518;Laerm;27249;48.094;-1.690;2023-02-26T05:39:35;49.48;40.23;61.40;;
41518;Laerm;27249;48.094;-1.690;2023-02-26T05:42:00;53.34;40.43;68.32;;
41518;Laerm;27249;48.094;-1.690;2023-02-26T05:44:25;47.52;40.03;63.36;;
41518;Laerm;27249;48.094;-1.690;2023-02-26T05:46:51;50.66;41.89;62.25;;
41518;Laerm;27249;48.094;-1.690;2023-02-26T05:49:16;52.51;40.98;69.46;;
41518;Laerm;27249;48.094;-1.690;2023-02-26T05:51:41;47.79;40.43;57.51;;
41518;Laerm;27249;48.094;-1.690;2023-02-26T05:54:07;49.10;41.46;60.26;;
41518;Laerm;27249;48.094;-1.690;2023-02-26T05:56:32;52.03;41.30;61.11;;
41518;Laerm;27249;48.094;-1.690;2023-02-26T05:58:57;51.75;41.68;60.13;;
41518;Laerm;27249;48.094;-1.690;2023-02-26T06:01:23;50.87;41.68;63.08;;
41518;Laerm;27249;48.094;-1.690;2023-02-26T06:03:48;48.82;40.98;61.49;;
41518;Laerm;27249;48.094;-1.690;2023-02-26T06:06:13;53.13;41.14;67.45;;
41518;Laerm;27249;48.094;-1.690;2023-02-26T06:08:41;52.28;41.38;62.02;;
41518;Laerm;27249;48.094;-1.690;2023-02-26T06:11:07;48.94;41.22;62.80;;
41518;Laerm;27249;48.094;-1.690;2023-02-26T06:13:32;45.85;40.80;60.24;;
41518;Laerm;27249;48.094;-1.690;2023-02-26T06:15:57;50.46;41.46;62.81;;
41518;Laerm;27249;48.094;-1.690;2023-02-26T06:18:22;48.25;40.80;63.58;;
41518;Laerm;27249;48.094;-1.690;2023-02-26T06:20:48;48.56;40.89;60.36;;
41518;Laerm;27249;48.094;-1.690;2023-02-26T06:23:13;47.93;40.89;58.62;;
41518;Laerm;27249;48.094;-1.690;2023-02-26T06:25:39;52.52;40.98;67.29;;
41518;Laerm;27249;48.094;-1.690;2023-02-26T06:28:04;50.12;40.71;64.67;;
41518;Laerm;27249;48.094;-1.690;2023-02-26T06:30:30;50.82;40.03;68.13;;
41518;Laerm;27249;48.094;-1.690;2023-02-26T06:32:56;48.38;40.03;58.64;;
41518;Laerm;27249;48.094;-1.690;2023-02-26T06:35:21;46.75;40.33;59.13;;
41518;Laerm;27249;48.094;-1.690;2023-02-26T06:37:46;52.06;40.53;64.79;;
41518;Laerm;27249;48.094;-1.690;2023-02-26T06:40:11;49.73;40.89;61.02;;
41518;Laerm;27249;48.094;-1.690;2023-02-26T06:42:37;47.62;40.80;57.31;;
41518;Laerm;27249;48.094;-1.690;2023-02-26T06:45:02;45.42;40.71;56.17;;
41518;Laerm;27249;48.094;-1.690;2023-02-26T06:47:27;51.95;40.89;62.80;;
41518;Laerm;27249;48.094;-1.690;2023-02-26T06:49:53;53.11;42.65;62.41;;
41518;Laerm;27249;48.094;-1.690;2023-02-26T06:52:18;48.26;41.53;65.75;;
41518;Laerm;27249;48.094;-1.690;2023-02-26T06:54:44;50.70;41.14;60.35;;
41518;Laerm;27249;48.094;-1.690;2023-02-26T06:57:09;44.65;40.33;55.16;;
41518;Laerm;27249;48.094;-1.690;2023-02-26T06:59:34;46.84;40.80;57.56;;
41518;Laerm;27249;48.094;-1.690;2023-02-26T07:02:00;51.67;41.06;63.25;;
41518;Laerm;27249;48.094;-1.690;2023-02-26T07:04:25;50.05;41.55;64.23;;
41518;Laerm;27249;48.094;-1.690;2023-02-26T07:06:50;49.22;41.82;61.39;;
41518;Laerm;27249;48.094;-1.690;2023-02-26T07:09:16;48.63;42.16;59.23;;
41518;Laerm;27249;48.094;-1.690;2023-02-26T07:11:43;50.50;40.98;60.43;;
41518;Laerm;27249;48.094;-1.690;2023-02-26T07:14:08;52.34;41.53;67.68;;
41518;Laerm;27249;48.094;-1.690;2023-02-26T07:16:34;48.67;41.82;58.32;;
41518;Laerm;27249;48.094;-1.690;2023-02-26T07:18:59;46.98;41.53;58.93;;
41518;Laerm;27249;48.094;-1.690;2023-02-26T07:21:25;54.10;42.03;62.81;;
41518;Laerm;27249;48.094;-1.690;2023-02-26T07:23:50;51.06;40.79;61.36;;
41518;Laerm;27249;48.094;-1.690;2023-02-26T07:26:15;59.99;43.24;85.57;;
41518;Laerm;27249;48.094;-1.690;2023-02-26T07:28:41;57.03;42.88;79.82;;
41518;Laerm;27249;48.094;-1.690;2023-02-26T07:31:06;48.70;41.22;60.05;;
41518;Laerm;27249;48.094;-1.690;2023-02-26T07:33:32;47.76;40.98;64.72;;
41518;Laerm;27249;48.094;-1.690;2023-02-26T07:35:59;52.37;41.22;65.70;;
41518;Laerm;27249;48.094;-1.690;2023-02-26T07:38:24;53.12;41.82;60.85;;
41518;Laerm;27249;48.094;-1.690;2023-02-26T07:40:49;53.43;42.53;62.44;;
41518;Laerm;27249;48.094;-1.690;2023-02-26T07:45:59;51.10;41.46;62.84;;
41518;Laerm;27249;48.094;-1.690;2023-02-26T07:48:25;51.06;41.96;63.58;;
41518;Laerm;27249;48.094;-1.690;2023-02-26T07:50:51;54.03;41.53;65.98;;
41518;Laerm;27249;48.094;-1.690;2023-02-26T07:53:16;52.45;42.88;63.14;;
41518;Laerm;27249;48.094;-1.690;2023-02-26T07:55:42;54.53;42.47;63.75;;
41518;Laerm;27249;48.094;-1.690;2023-02-26T07:58:07;52.11;42.76;65.14;;
41518;Laerm;27249;48.094;-1.690;2023-02-26T08:00:32;52.67;41.30;64.38;;
41518;Laerm;27249;48.094;-1.690;2023-02-26T08:02:57;55.80;39.21;63.21;;
41518;Laerm;27249;48.094;-1.690;2023-02-26T08:05:23;53.61;44.27;62.48;;
41518;Laerm;27249;48.094;-1.690;2023-02-26T08:07:48;56.67;42.65;67.80;;
41518;Laerm;27249;48.094;-1.690;2023-02-26T08:10:13;52.39;41.96;62.20;;
41518;Laerm;27249;48.094;-1.690;2023-02-26T08:12:38;50.78;41.06;61.35;;
41518;Laerm;27249;48.094;-1.690;2023-02-26T08:15:04;53.10;41.89;63.85;;
41518;Laerm;27249;48.094;-1.690;2023-02-26T08:17:30;54.85;42.35;63.07;;
41518;Laerm;27249;48.094;-1.690;2023-02-26T08:19:55;52.40;41.22;61.47;;
41518;Laerm;27249;48.094;-1.690;2023-02-26T08:22:20;52.52;43.09;63.13;;
41518;Laerm;27249;48.094;-1.690;2023-02-26T08:24:47;53.44;40.98;63.70;;
41518;Laerm;27249;48.094;-1.690;2023-02-26T08:27:12;52.83;41.46;66.89;;
41518;Laerm;27249;48.094;-1.690;2023-02-26T08:29:38;52.07;42.16;62.81;;
41518;Laerm;27249;48.094;-1.690;2023-02-26T08:32:03;53.95;44.27;70.56;;
41518;Laerm;27249;48.094;-1.690;2023-02-26T08:34:28;54.89;44.83;63.61;;
41518;Laerm;27249;48.094;-1.690;2023-02-26T08:43:00;54.05;43.04;64.46;;
41518;Laerm;27249;48.094;-1.690;2023-02-26T08:45:27;54.95;43.68;62.50;;
41518;Laerm;27249;48.094;-1.690;2023-02-26T08:47:53;53.39;42.29;62.12;;
41518;Laerm;27249;48.094;-1.690;2023-02-26T08:50:19;57.38;42.16;75.36;;
41518;Laerm;27249;48.094;-1.690;2023-02-26T08:52:44;53.19;43.86;63.94;;
41518;Laerm;27249;48.094;-1.690;2023-02-26T08:55:09;54.60;42.82;63.16;;
41518;Laerm;27249;48.094;-1.690;2023-02-26T08:57:36;54.52;43.34;63.03;;
41518;Laerm;27249;48.094;-1.690;2023-02-26T09:00:02;53.61;43.86;70.60;;
41518;Laerm;27249;48.094;-1.690;2023-02-26T09:02:29;54.83;44.58;62.61;;
41518;Laerm;27249;48.094;-1.690;2023-02-26T09:04:54;53.86;43.29;64.59;;
41518;Laerm;27249;48.094;-1.690;2023-02-26T09:07:19;51.76;42.71;62.06;;
41518;Laerm;27249;48.094;-1.690;2023-02-26T09:09:44;53.91;42.65;64.02;;
41518;Laerm;27249;48.094;-1.690;2023-02-26T09:12:09;51.49;42.29;62.06;;
41518;Laerm;27249;48.094;-1.690;2023-02-26T09:14:35;56.04;45.07;62.95;;
41518;Laerm;27249;48.094;-1.690;2023-02-26T09:17:00;55.30;44.39;63.80;;
41518;Laerm;27249;48.094;-1.690;2023-02-26T09:19:25;55.05;45.51;63.60;;
41518;Laerm;27249;48.094;-1.690;2023-02-26T09:21:51;58.90;46.87;69.17;;
41518;Laerm;27249;48.094;-1.690;2023-02-26T09:24:16;63.22;54.50;70.06;;
41518;Laerm;27249;48.094;-1.690;2023-02-26T09:26:41;55.48;46.13;67.69;;
41518;Laerm;27249;48.094;-1.690;2023-02-26T09:29:06;56.28;48.08;65.34;;
41518;Laerm;27249;48.094;-1.690;2023-02-26T09:31:32;53.96;43.09;65.79;;
41518;Laerm;27249;48.094;-1.690;2023-02-26T09:33:57;54.91;45.57;62.78;;
41518;Laerm;27249;48.094;-1.690;2023-02-26T09:36:22;56.22;45.80;72.52;;
41518;Laerm;27249;48.094;-1.690;2023-02-26T09:38:48;56.32;45.11;65.08;;
41518;Laerm;27249;48.094;-1.690;2023-02-26T09:41:20;56.00;43.63;65.52;;
41518;Laerm;27249;48.094;-1.690;2023-02-26T09:55:30;53.99;44.23;65.39;;
41518;Laerm;27249;48.094;-1.690;2023-02-26T09:57:59;55.93;44.69;63.95;;
41518;Laerm;27249;48.094;-1.690;2023-02-26T10:03:19;54.08;43.81;63.38;;
41518;Laerm;27249;48.094;-1.690;2023-02-26T10:08:16;53.24;43.86;60.68;;
41518;Laerm;27249;48.094;-1.690;2023-02-26T10:10:50;55.91;46.93;63.70;;
41518;Laerm;27249;48.094;-1.690;2023-02-26T10:13:24;55.02;43.54;63.78;;
41518;Laerm;27249;48.094;-1.690;2023-02-26T10:15:52;57.91;46.82;70.18;;
41518;Laerm;27249;48.094;-1.690;2023-02-26T10:18:22;57.52;45.57;66.98;;
41518;Laerm;27249;48.094;-1.690;2023-02-26T10:30:40;55.67;48.23;62.17;;
41518;Laerm;27249;48.094;-1.690;2023-02-26T10:36:28;55.01;43.81;63.03;;
41518;Laerm;27249;48.094;-1.690;2023-02-26T10:39:20;55.03;46.38;64.86;;
41518;Laerm;27249;48.094;-1.690;2023-02-26T10:41:50;57.08;48.92;65.30;;
41518;Laerm;27249;48.094;-1.690;2023-02-26T10:44:17;55.47;46.15;64.58;;
41518;Laerm;27249;48.094;-1.690;2023-02-26T10:46:51;56.04;46.48;64.03;;
41518;Laerm;27249;48.094;-1.690;2023-02-26T10:49:28;55.13;44.65;64.33;;
41518;Laerm;27249;48.094;-1.690;2023-02-26T10:52:00;57.57;48.15;68.21;;
41518;Laerm;27249;48.094;-1.690;2023-02-26T10:54:29;57.46;46.89;74.95;;
41518;Laerm;27249;48.094;-1.690;2023-02-26T10:56:57;54.47;45.33;63.47;;
41518;Laerm;27249;48.094;-1.690;2023-02-26T10:59:22;55.49;43.68;67.48;;
41518;Laerm;27249;48.094;-1.690;2023-02-26T11:01:47;56.25;45.42;66.89;;
41518;Laerm;27249;48.094;-1.690;2023-02-26T11:04:15;56.69;48.55;68.06;;
41518;Laerm;27249;48.094;-1.690;2023-02-26T11:06:50;55.23;43.86;66.43;;
41518;Laerm;27249;48.094;-1.690;2023-02-26T11:12:00;56.46;46.35;62.17;;
41518;Laerm;27249;48.094;-1.690;2023-02-26T11:14:28;56.92;48.95;63.69;;
41518;Laerm;27249;48.094;-1.690;2023-02-26T11:16:56;56.16;47.24;68.09;;
41518;Laerm;27249;48.094;-1.690;2023-02-26T11:19:25;55.37;44.51;61.87;;
41518;Laerm;27249;48.094;-1.690;2023-02-26T11:21:51;56.30;46.69;62.77;;
41518;Laerm;27249;48.094;-1.690;2023-02-26T11:24:35;55.07;47.22;63.03;;
41518;Laerm;27249;48.094;-1.690;2023-02-26T11:27:03;55.96;45.99;66.88;;
41518;Laerm;27249;48.094;-1.690;2023-02-26T11:29:36;57.32;45.60;63.66;;
41518;Laerm;27249;48.094;-1.690;2023-02-26T11:32:05;56.54;46.13;64.82;;
41518;Laerm;27249;48.094;-1.690;2023-02-26T11:34:31;56.73;46.93;70.46;;
41518;Laerm;27249;48.094;-1.690;2023-02-26T11:36:57;55.52;46.20;67.13;;
41518;Laerm;27249;48.094;-1.690;2023-02-26T11:39:24;59.51;45.23;76.71;;
41518;Laerm;27249;48.094;-1.690;2023-02-26T11:41:51;55.76;45.91;65.26;;
41518;Laerm;27249;48.094;-1.690;2023-02-26T11:44:23;55.58;47.50;62.48;;
41518;Laerm;27249;48.094;-1.690;2023-02-26T11:46:51;57.63;47.86;66.71;;
41518;Laerm;27249;48.094;-1.690;2023-02-26T11:49:18;55.27;44.69;63.04;;
41518;Laerm;27249;48.094;-1.690;2023-02-26T11:51:45;52.94;44.27;60.70;;
41518;Laerm;27249;48.094;-1.690;2023-02-26T11:54:21;57.16;46.05;65.60;;
41518;Laerm;27249;48.094;-1.690;2023-02-26T11:56:46;57.62;47.02;68.59;;
41518;Laerm;27249;48.094;-1.690;2023-02-26T11:59:19;55.82;44.62;64.61;;
41518;Laerm;27249;48.094;-1.690;2023-02-26T12:01:45;55.03;45.57;66.44;;
41518;Laerm;27249;48.094;-1.690;2023-02-26T12:06:39;53.97;43.94;66.94;;
41518;Laerm;27249;48.094;-1.690;2023-02-26T12:09:13;54.92;44.65;64.76;;
41518;Laerm;27249;48.094;-1.690;2023-02-26T12:14:15;56.74;46.25;68.49;;
41518;Laerm;27249;48.094;-1.690;2023-02-26T12:35:35;54.75;44.11;67.08;;
41518;Laerm;27249;48.094;-1.690;2023-02-26T12:40:58;55.50;43.77;69.35;;
41518;Laerm;27249;48.094;-1.690;2023-02-26T12:43:45;54.21;43.58;65.07;;
41518;Laerm;27249;48.094;-1.690;2023-02-26T12:49:05;55.43;47.61;67.55;;
41518;Laerm;27249;48.094;-1.690;2023-02-26T13:14:17;55.69;43.99;67.10;;
41518;Laerm;27249;48.094;-1.690;2023-02-26T13:16:53;56.62;46.76;75.20;;
41518;Laerm;27249;48.094;-1.690;2023-02-26T13:21:47;54.32;44.43;63.71;;
41518;Laerm;27249;48.094;-1.690;2023-02-26T13:26:47;55.70;46.20;65.18;;
41518;Laerm;27249;48.094;-1.690;2023-02-26T13:29:20;55.98;45.30;64.38;;
41518;Laerm;27249;48.094;-1.690;2023-02-26T13:32:09;55.58;45.23;65.75;;
41518;Laerm;27249;48.094;-1.690;2023-02-26T13:37:05;54.99;45.75;66.79;;
41518;Laerm;27249;48.094;-1.690;2023-02-26T13:39:48;54.74;45.80;63.40;;
41518;Laerm;27249;48.094;-1.690;2023-02-26T13:42:28;54.97;47.10;64.97;;
41518;Laerm;27249;48.094;-1.690;2023-02-26T13:49:54;54.96;45.36;64.01;;
41518;Laerm;27249;48.094;-1.690;2023-02-26T13:52:26;56.17;49.24;67.01;;
41518;Laerm;27249;48.094;-1.690;2023-02-26T13:55:03;56.77;45.69;65.73;;
41518;Laerm;27249;48.094;-1.690;2023-02-26T14:00:09;58.15;44.90;72.26;;
41518;Laerm;27249;48.094;-1.690;2023-02-26T14:05:09;56.56;45.91;65.19;;
41518;Laerm;27249;48.094;-1.690;2023-02-26T14:10:56;54.61;44.23;62.84;;
41518;Laerm;27249;48.094;-1.690;2023-02-26T14:18:34;55.67;45.48;68.86;;
41518;Laerm;27249;48.094;-1.690;2023-02-26T14:23:43;58.57;49.29;77.54;;
41518;Laerm;27249;48.094;-1.690;2023-02-26T14:26:12;54.97;44.54;64.03;;
41518;Laerm;27249;48.094;-1.690;2023-02-26T14:28:41;55.61;46.28;63.46;;
41518;Laerm;27249;48.094;-1.690;2023-02-26T14:31:12;55.31;46.25;63.81;;
41518;Laerm;27249;48.094;-1.690;2023-02-26T14:33:39;54.33;43.24;63.50;;
41518;Laerm;27249;48.094;-1.690;2023-02-26T14:36:08;54.91;45.33;63.01;;
41518;Laerm;27249;48.094;-1.690;2023-02-26T14:38:38;59.06;50.16;73.06;;
41518;Laerm;27249;48.094;-1.690;2023-02-26T14:41:05;58.54;45.04;73.30;;
41518;Laerm;27249;48.094;-1.690;2023-02-26T14:43:37;57.59;44.62;73.28;;
41518;Laerm;27249;48.094;-1.690;2023-02-26T14:46:03;55.22;45.57;64.79;;
41518;Laerm;27249;48.094;-1.690;2023-02-26T14:48:29;55.63;48.39;63.05;;
41518;Laerm;27249;48.094;-1.690;2023-02-26T15:06:45;57.68;45.45;75.27;;
41518;Laerm;27249;48.094;-1.690;2023-02-26T15:09:17;53.61;43.34;61.51;;
41518;Laerm;27249;48.094;-1.690;2023-02-26T15:11:49;55.38;47.91;62.74;;
41518;Laerm;27249;48.094;-1.690;2023-02-26T15:22:05;55.23;44.27;63.55;;
41518;Laerm;27249;48.094;-1.690;2023-02-26T15:24:33;56.01;47.48;63.82;;
41518;Laerm;27249;48.094;-1.690;2023-02-26T15:26:59;54.09;44.83;62.71;;
41518;Laerm;27249;48.094;-1.690;2023-02-26T15:29:27;55.45;45.27;64.48;;
41518;Laerm;27249;48.094;-1.690;2023-02-26T15:31:54;54.82;45.60;63.63;;
41518;Laerm;27249;48.094;-1.690;2023-02-26T15:34:21;54.65;46.10;61.44;;
41518;Laerm;27249;48.094;-1.690;2023-02-26T15:36:49;54.03;42.98;65.45;;
41518;Laerm;27249;48.094;-1.690;2023-02-26T15:39:15;54.98;43.29;65.44;;
41518;Laerm;27249;48.094;-1.690;2023-02-26T15:41:41;55.70;44.73;67.16;;
41518;Laerm;27249;48.094;-1.690;2023-02-26T15:44:08;52.86;44.12;67.33;;
41518;Laerm;27249;48.094;-1.690;2023-02-26T15:46:38;54.86;46.05;62.77;;
41518;Laerm;27249;48.094;-1.690;2023-02-26T15:49:20;56.17;48.99;66.21;;
41518;Laerm;27249;48.094;-1.690;2023-02-26T15:51:47;55.28;45.99;63.79;;
41518;Laerm;27249;48.094;-1.690;2023-02-26T15:54:14;55.57;46.18;76.46;;
41518;Laerm;27249;48.094;-1.690;2023-02-26T15:56:40;55.25;43.54;68.68;;
41518;Laerm;27249;48.094;-1.690;2023-02-26T15:59:06;57.31;43.90;74.57;;
41518;Laerm;27249;48.094;-1.690;2023-02-26T16:01:33;54.71;44.51;61.41;;
41518;Laerm;27249;48.094;-1.690;2023-02-26T16:04:01;54.58;46.71;66.51;;
41518;Laerm;27249;48.094;-1.690;2023-02-26T16:08:55;54.26;44.69;61.86;;
41518;Laerm;27249;48.094;-1.690;2023-02-26T16:11:20;54.31;46.87;65.99;;
41518;Laerm;27249;48.094;-1.690;2023-02-26T16:13:46;55.35;48.49;66.12;;
41518;Laerm;27249;48.094;-1.690;2023-02-26T16:16:35;54.79;46.55;61.30;;
41518;Laerm;27249;48.094;-1.690;2023-02-26T16:19:02;55.73;47.58;64.97;;
41518;Laerm;27249;48.094;-1.690;2023-02-26T16:21:30;54.04;44.69;62.69;;
41518;Laerm;27249;48.094;-1.690;2023-02-26T16:23:57;56.60;47.30;62.94;;
41518;Laerm;27249;48.094;-1.690;2023-02-26T16:26:25;54.85;44.69;67.13;;
41518;Laerm;27249;48.094;-1.690;2023-02-26T16:28:53;54.20;43.14;62.79;;
41518;Laerm;27249;48.094;-1.690;2023-02-26T16:31:21;55.81;47.46;62.85;;
41518;Laerm;27249;48.094;-1.690;2023-02-26T16:34:01;55.06;45.99;62.94;;
41518;Laerm;27249;48.094;-1.690;2023-02-26T16:36:31;54.91;45.75;64.19;;
41518;Laerm;27249;48.094;-1.690;2023-02-26T16:39:16;54.91;47.24;66.77;;
41518;Laerm;27249;48.094;-1.690;2023-02-26T16:41:46;55.46;45.42;66.67;;
41518;Laerm;27249;48.094;-1.690;2023-02-26T16:44:35;53.30;45.57;62.52;;
41518;Laerm;27249;48.094;-1.690;2023-02-26T16:47:01;54.07;45.72;61.84;;
41518;Laerm;27249;48.094;-1.690;2023-02-26T16:49:28;53.82;46.62;63.08;;
41518;Laerm;27249;48.094;-1.690;2023-02-26T16:51:55;55.22;45.89;71.62;;
41518;Laerm;27249;48.094;-1.690;2023-02-26T16:54:32;54.54;43.90;66.89;;
41518;Laerm;27249;48.094;-1.690;2023-02-26T16:57:03;54.60;44.43;65.47;;
41518;Laerm;27249;48.094;-1.690;2023-02-26T16:59:30;55.06;45.80;66.13;;